sensor_id;sensor_type;location;lat;lon;timestamp;pressure;altitude;pressure_sealevel;temperature;humidity
47815;BME280;33579;50.058;18.130;2023-04-04T00:00:03;100009.34;;;0.89;100.00
47815;BME280;33579;50.058;18.130;2023-04-04T00:01:05;100008.53;;;0.88;100.00
47815;BME280;33579;50.058;18.130;2023-04-04T00:02:07;100003.38;;;0.87;100.00
47815;BME280;33579;50.058;18.130;2023-04-04T00:03:09;100002.63;;;0.83;100.00
47815;BME280;33579;50.058;18.130;2023-04-04T00:04:11;100003.59;;;0.80;100.00
47815;BME280;33579;50.058;18.130;2023-04-04T00:05:12;100003.66;;;0.79;100.00
47815;BME280;33579;50.058;18.130;2023-04-04T00:06:14;100006.13;;;0.82;100.00
47815;BME280;33579;50.058;18.130;2023-04-04T00:07:18;100001.97;;;0.78;100.00
47815;BME280;33579;50.058;18.130;2023-04-04T00:08:20;100003.00;;;0.72;100.00
47815;BME280;33579;50.058;18.130;2023-04-04T00:09:21;99992.84;;;0.66;100.00
47815;BME280;33579;50.058;18.130;2023-04-04T00:10:23;100001.50;;;0.65;100.00
47815;BME280;33579;50.058;18.130;2023-04-04T00:11:25;100000.56;;;0.67;100.00
47815;BME280;33579;50.058;18.130;2023-04-04T00:12:27;99998.09;;;0.64;100.00
47815;BME280;33579;50.058;18.130;2023-04-04T00:13:30;100004.06;;;0.66;100.00
47815;BME280;33579;50.058;18.130;2023-04-04T00:14:32;99998.22;;;0.60;100.00
47815;BME280;33579;50.058;18.130;2023-04-04T00:16:49;99998.28;;;0.58;100.00
47815;BME280;33579;50.058;18.130;2023-04-04T00:17:50;99999.22;;;0.55;100.00
47815;BME280;33579;50.058;18.130;2023-04-04T00:18:52;99995.69;;;0.58;100.00
47815;BME280;33579;50.058;18.130;2023-04-04T00:19:54;99996.53;;;0.59;100.00
47815;BME280;33579;50.058;18.130;2023-04-04T00:20:56;99992.31;;;0.56;100.00
47815;BME280;33579;50.058;18.130;2023-04-04T00:21:57;99993.31;;;0.52;100.00
47815;BME280;33579;50.058;18.130;2023-04-04T00:22:59;99991.75;;;0.46;100.00
47815;BME280;33579;50.058;18.130;2023-04-04T00:24:01;99990.88;;;0.47;100.00
47815;BME280;33579;50.058;18.130;2023-04-04T00:25:04;99992.69;;;0.44;100.00
47815;BME280;33579;50.058;18.130;2023-04-04T00:26:06;99992.69;;;0.44;100.00
47815;BME280;33579;50.058;18.130;2023-04-04T00:27:08;99989.25;;;0.43;100.00
47815;BME280;33579;50.058;18.130;2023-04-04T00:28:10;99982.56;;;0.37;100.00
47815;BME280;33579;50.058;18.130;2023-04-04T00:29:12;99983.34;;;0.39;100.00
47815;BME280;33579;50.058;18.130;2023-04-04T00:30:13;99988.53;;;0.39;100.00
47815;BME280;33579;50.058;18.130;2023-04-04T00:31:15;99987.03;;;0.32;100.00
47815;BME280;33579;50.058;18.130;2023-04-04T00:32:17;99985.19;;;0.36;100.00
47815;BME280;33579;50.058;18.130;2023-04-04T00:33:18;99991.25;;;0.35;100.00
47815;BME280;33579;50.058;18.130;2023-04-04T00:34:20;99985.06;;;0.39;100.00
47815;BME280;33579;50.058;18.130;2023-04-04T00:35:22;99988.81;;;0.30;100.00
47815;BME280;33579;50.058;18.130;2023-04-04T00:36:24;99984.53;;;0.29;100.00
47815;BME280;33579;50.058;18.130;2023-04-04T00:37:26;99983.59;;;0.32;100.00
47815;BME280;33579;50.058;18.130;2023-04-04T00:38:27;99990.34;;;0.36;100.00
47815;BME280;33579;50.058;18.130;2023-04-04T00:39:29;99977.44;;;0.34;100.00
47815;BME280;33579;50.058;18.130;2023-04-04T00:40:30;99982.69;;;0.33;100.00
47815;BME280;33579;50.058;18.130;2023-04-04T00:41:32;99989.63;;;0.31;100.00
47815;BME280;33579;50.058;18.130;2023-04-04T00:42:34;99982.78;;;0.30;100.00
47815;BME280;33579;50.058;18.130;2023-04-04T00:43:37;99987.16;;;0.27;100.00
47815;BME280;33579;50.058;18.130;2023-04-04T00:44:39;99988.06;;;0.26;100.00
47815;BME280;33579;50.058;18.130;2023-04-04T00:45:41;99991.69;;;0.21;100.00
47815;BME280;33579;50.058;18.130;2023-04-04T00:46:43;99994.22;;;0.22;100.00
47815;BME280;33579;50.058;18.130;2023-04-04T00:47:45;99985.56;;;0.23;100.00
47815;BME280;33579;50.058;18.130;2023-04-04T00:48:48;99988.16;;;0.23;100.00
47815;BME280;33579;50.058;18.130;2023-04-04T00:49:51;99981.44;;;0.18;100.00
47815;BME280;33579;50.058;18.130;2023-04-04T00:50:53;99984.91;;;0.17;100.00
47815;BME280;33579;50.058;18.130;2023-04-04T00:51:54;99983.34;;;0.12;100.00
47815;BME280;33579;50.058;18.130;2023-04-04T00:52:56;99980.75;;;0.12;100.00
47815;BME280;33579;50.058;18.130;2023-04-04T00:53:57;99978.84;;;0.18;100.00
47815;BME280;33579;50.058;18.130;2023-04-04T00:55:00;99979.03;;;0.11;100.00
47815;BME280;33579;50.058;18.130;2023-04-04T00:56:02;99979.09;;;0.10;100.00
47815;BME280;33579;50.058;18.130;2023-04-04T00:57:04;99972.91;;;0.14;100.00
47815;BME280;33579;50.058;18.130;2023-04-04T00:58:07;99975.59;;;0.11;100.00
47815;BME280;33579;50.058;18.130;2023-04-04T00:59:09;99985.03;;;0.13;100.00
47815;BME280;33579;50.058;18.130;2023-04-04T01:00:12;99985.91;;;0.12;100.00
47815;BME280;33579;50.058;18.130;2023-04-04T01:01:15;99979.03;;;0.11;100.00
47815;BME280;33579;50.058;18.130;2023-04-04T01:02:17;99981.81;;;0.05;100.00
47815;BME280;33579;50.058;18.130;2023-04-04T01:03:18;99984.41;;;0.05;100.00
47815;BME280;33579;50.058;18.130;2023-04-04T01:04:20;99984.25;;;0.10;100.00
47815;BME280;33579;50.058;18.130;2023-04-04T01:05:23;99985.19;;;0.07;100.00
47815;BME280;33579;50.058;18.130;2023-04-04T01:06:24;99986.88;;;0.08;100.00
47815;BME280;33579;50.058;18.130;2023-04-04T01:07:26;99991.28;;;0.06;100.00
47815;BME280;33579;50.058;18.130;2023-04-04T01:08:29;99985.19;;;0.07;100.00
47815;BME280;33579;50.058;18.130;2023-04-04T01:09:31;99990.50;;;0.03;100.00
47815;BME280;33579;50.058;18.130;2023-04-04T01:10:33;99992.19;;;0.04;100.00
47815;BME280;33579;50.058;18.130;2023-04-04T01:11:35;99993.19;;;-0.01;100.00
47815;BME280;33579;50.058;18.130;2023-04-04T01:12:38;99988.00;;;0.01;100.00
47815;BME280;33579;50.058;18.130;2023-04-04T01:13:40;99993.31;;;-0.04;100.00
47815;BME280;33579;50.058;18.130;2023-04-04T01:14:45;99990.59;;;-0.01;100.00
47815;BME280;33579;50.058;18.130;2023-04-04T01:15:48;99985.47;;;-0.02;100.00
47815;BME280;33579;50.058;18.130;2023-04-04T01:18:22;99993.53;;;-0.11;100.00
47815;BME280;33579;50.058;18.130;2023-04-04T01:19:58;99986.47;;;-0.06;100.00
47815;BME280;33579;50.058;18.130;2023-04-04T01:21:07;99987.50;;;-0.12;100.00
47815;BME280;33579;50.058;18.130;2023-04-04T01:22:12;99983.09;;;-0.08;100.00
47815;BME280;33579;50.058;18.130;2023-04-04T01:23:16;99985.69;;;-0.08;100.00
47815;BME280;33579;50.058;18.130;2023-04-04T01:24:20;99984.13;;;-0.14;100.00
47815;BME280;33579;50.058;18.130;2023-04-04T01:25:30;99985.78;;;-0.11;100.00
47815;BME280;33579;50.058;18.130;2023-04-04T01:26:37;99980.66;;;-0.15;100.00
47815;BME280;33579;50.058;18.130;2023-04-04T01:27:39;99983.97;;;-0.09;100.00
47815;BME280;33579;50.058;18.130;2023-04-04T01:28:46;99983.19;;;-0.11;100.00
47815;BME280;33579;50.058;18.130;2023-04-04T01:29:48;99982.28;;;-0.10;100.00
47815;BME280;33579;50.058;18.130;2023-04-04T01:30:50;99987.47;;;-0.10;100.00
47815;BME280;33579;50.058;18.130;2023-04-04T01:32:12;99989.22;;;-0.12;100.00
47815;BME280;33579;50.058;18.130;2023-04-04T01:33:19;99991.09;;;-0.16;100.00
47815;BME280;33579;50.058;18.130;2023-04-04T01:34:37;99985.00;;;-0.15;100.00
47815;BME280;33579;50.058;18.130;2023-04-04T01:37:16;99992.91;;;-0.20;100.00
47815;BME280;33579;50.058;18.130;2023-04-04T01:38:34;99994.59;;;-0.19;100.00
47815;BME280;33579;50.058;18.130;2023-04-04T01:39:48;99994.50;;;-0.16;100.00
47815;BME280;33579;50.058;18.130;2023-04-04T01:40:51;99997.06;;;-0.14;100.00
47815;BME280;33579;50.058;18.130;2023-04-04T01:41:57;99992.91;;;-0.20;100.00
47815;BME280;33579;50.058;18.130;2023-04-04T01:42:59;99994.50;;;-0.16;100.00
47815;BME280;33579;50.058;18.130;2023-04-04T01:44:04;99996.31;;;-0.19;100.00
47815;BME280;33579;50.058;18.130;2023-04-04T01:45:06;99998.91;;;-0.19;100.00
47815;BME280;33579;50.058;18.130;2023-04-04T01:46:09;99997.88;;;-0.13;100.00
47815;BME280;33579;50.058;18.130;2023-04-04T01:47:12;99997.97;;;-0.17;100.00
47815;BME280;33579;50.058;18.130;2023-04-04T01:48:14;100002.16;;;-0.12;100.00
47815;BME280;33579;50.058;18.130;2023-04-04T01:49:16;99995.25;;;-0.12;100.00
47815;BME280;33579;50.058;18.130;2023-04-04T01:50:18;99998.84;;;-0.16;100.00
47815;BME280;33579;50.058;18.130;2023-04-04T01:51:20;99996.13;;;-0.11;100.00
47815;BME280;33579;50.058;18.130;2023-04-04T01:52:23;99996.91;;;-0.09;100.00
47815;BME280;33579;50.058;18.130;2023-04-04T01:53:25;99998.84;;;-0.16;100.00
47815;BME280;33579;50.058;18.130;2023-04-04T01:54:27;99998.88;;;-0.18;100.00
47815;BME280;33579;50.058;18.130;2023-04-04T01:55:28;99997.16;;;-0.17;100.00
47815;BME280;33579;50.058;18.130;2023-04-04T01:56:31;99997.16;;;-0.17;100.00
47815;BME280;33579;50.058;18.130;2023-04-04T01:57:32;99997.88;;;-0.13;100.00
47815;BME280;33579;50.058;18.130;2023-04-04T01:58:34;100003.06;;;-0.13;100.00
47815;BME280;33579;50.058;18.130;2023-04-04T01:59:36;100003.16;;;-0.17;100.00
47815;BME280;33579;50.058;18.130;2023-04-04T02:00:38;100000.81;;;-0.26;100.00
47815;BME280;33579;50.058;18.130;2023-04-04T02:01:40;100001.59;;;-0.22;100.00
47815;BME280;33579;50.058;18.130;2023-04-04T02:02:42;99998.19;;;-0.23;100.00
47815;BME280;33579;50.058;18.130;2023-04-04T02:03:45;99993.66;;;-0.16;100.00
47815;BME280;33579;50.058;18.130;2023-04-04T02:04:47;100000.56;;;-0.17;100.00
47815;BME280;33579;50.058;18.130;2023-04-04T02:05:49;100001.44;;;-0.16;100.00
47815;BME280;33579;50.058;18.130;2023-04-04T02:06:50;100004.16;;;-0.21;100.00
47815;BME280;33579;50.058;18.130;2023-04-04T02:07:53;100007.44;;;-0.16;100.00
47815;BME280;33579;50.058;18.130;2023-04-04T02:09:03;100001.44;;;-0.16;100.00
47815;BME280;33579;50.058;18.130;2023-04-04T02:10:06;100004.91;;;-0.17;100.00
47815;BME280;33579;50.058;18.130;2023-04-04T02:11:07;99994.50;;;-0.16;100.00
47815;BME280;33579;50.058;18.130;2023-04-04T02:12:09;99996.47;;;-0.24;100.00
47815;BME280;33579;50.058;18.130;2023-04-04T02:13:11;99992.13;;;-0.23;100.00
47815;BME280;33579;50.058;18.130;2023-04-04T02:14:14;99992.25;;;-0.26;100.00
47815;BME280;33579;50.058;18.130;2023-04-04T02:15:15;99997.50;;;-0.30;100.00
47815;BME280;33579;50.058;18.130;2023-04-04T02:16:17;100000.16;;;-0.33;100.00
47815;BME280;33579;50.058;18.130;2023-04-04T02:17:19;100000.22;;;-0.34;100.00
47815;BME280;33579;50.058;18.130;2023-04-04T02:18:21;100006.16;;;-0.31;100.00
47815;BME280;33579;50.058;18.130;2023-04-04T02:19:23;100005.16;;;-0.26;100.00
47815;BME280;33579;50.058;18.130;2023-04-04T02:20:24;100006.19;;;-0.32;100.00
47815;BME280;33579;50.058;18.130;2023-04-04T02:21:26;100004.50;;;-0.33;100.00
47815;BME280;33579;50.058;18.130;2023-04-04T02:22:28;100008.88;;;-0.35;100.00
47815;BME280;33579;50.058;18.130;2023-04-04T02:23:30;100005.44;;;-0.36;100.00
47815;BME280;33579;50.058;18.130;2023-04-04T02:24:32;100009.78;;;-0.36;100.00
47815;BME280;33579;50.058;18.130;2023-04-04T02:25:33;100004.59;;;-0.36;100.00
47815;BME280;33579;50.058;18.130;2023-04-04T02:29:16;100009.91;;;-0.41;100.00
47815;BME280;33579;50.058;18.130;2023-04-04T02:30:18;100013.38;;;-0.42;100.00
47815;BME280;33579;50.058;18.130;2023-04-04T02:31:21;100009.03;;;-0.41;100.00
47815;BME280;33579;50.058;18.130;2023-04-04T02:32:23;100006.44;;;-0.41;100.00
47815;BME280;33579;50.058;18.130;2023-04-04T05:36:28;100032.53;;;-0.49;100.00
47815;BME280;33579;50.058;18.130;2023-04-04T05:37:40;100027.22;;;-0.45;100.00
47815;BME280;33579;50.058;18.130;2023-04-04T05:44:07;100022.59;;;-0.33;100.00
47815;BME280;33579;50.058;18.130;2023-04-04T05:45:09;100024.25;;;-0.31;100.00
47815;BME280;33579;50.058;18.130;2023-04-04T05:46:11;100027.78;;;-0.33;100.00
47815;BME280;33579;50.058;18.130;2023-04-04T05:47:18;100034.38;;;-0.23;100.00
47815;BME280;33579;50.058;18.130;2023-04-04T05:48:21;100030.00;;;-0.21;100.00
47815;BME280;33579;50.058;18.130;2023-04-04T05:49:25;100027.28;;;-0.16;100.00
47815;BME280;33579;50.058;18.130;2023-04-04T05:50:30;100035.13;;;-0.19;100.00
47815;BME280;33579;50.058;18.130;2023-04-04T05:51:35;100036.78;;;-0.17;100.00
47815;BME280;33579;50.058;18.130;2023-04-04T05:52:54;100033.25;;;-0.14;100.00
47815;BME280;33579;50.058;18.130;2023-04-04T05:53:56;100029.94;;;-0.19;100.00
47815;BME280;33579;50.058;18.130;2023-04-04T05:55:03;100030.84;;;-0.20;100.00
47815;BME280;33579;50.058;18.130;2023-04-04T05:56:06;100027.22;;;-0.15;100.00
47815;BME280;33579;50.058;18.130;2023-04-04T05:57:08;100036.69;;;-0.13;100.00
47815;BME280;33579;50.058;18.130;2023-04-04T05:58:16;100035.00;;;-0.15;100.00
47815;BME280;33579;50.058;18.130;2023-04-04T05:59:22;100035.63;;;-0.06;100.00
47815;BME280;33579;50.058;18.130;2023-04-04T06:00:32;100032.13;;;-0.05;100.00
47815;BME280;33579;50.058;18.130;2023-04-04T06:01:39;100030.34;;;-0.03;99.50
47815;BME280;33579;50.058;18.130;2023-04-04T06:02:45;100033.72;;;-0.01;99.13
47815;BME280;33579;50.058;18.130;2023-04-04T06:03:51;100031.16;;;-0.01;99.59
47815;BME280;33579;50.058;18.130;2023-04-04T06:04:58;100035.25;;;0.06;99.91
47815;BME280;33579;50.058;18.130;2023-04-04T06:06:04;100035.81;;;0.16;100.00
47815;BME280;33579;50.058;18.130;2023-04-04T06:07:07;100040.97;;;0.18;99.59
47815;BME280;33579;50.058;18.130;2023-04-04T06:08:09;100035.03;;;0.14;98.80
47815;BME280;33579;50.058;18.130;2023-04-04T06:09:10;100038.41;;;0.16;98.84
47815;BME280;33579;50.058;18.130;2023-04-04T06:10:12;100036.78;;;0.13;98.69
47815;BME280;33579;50.058;18.130;2023-04-04T06:11:14;100030.75;;;0.13;97.71
47815;BME280;33579;50.058;18.130;2023-04-04T06:12:15;100025.59;;;0.11;97.18
47815;BME280;33579;50.058;18.130;2023-04-04T06:13:17;100034.84;;;0.20;98.40
47815;BME280;33579;50.058;18.130;2023-04-04T06:14:24;100029.81;;;0.16;99.29
47815;BME280;33579;50.058;18.130;2023-04-04T06:15:26;100032.53;;;0.11;98.22
47815;BME280;33579;50.058;18.130;2023-04-04T06:16:27;100035.13;;;0.11;97.48
47815;BME280;33579;50.058;18.130;2023-04-04T06:17:29;100031.75;;;0.09;97.54
47815;BME280;33579;50.058;18.130;2023-04-04T06:18:31;100030.72;;;0.15;97.29
47815;BME280;33579;50.058;18.130;2023-04-04T06:19:32;100039.94;;;0.23;97.48
47815;BME280;33579;50.058;18.130;2023-04-04T06:20:34;100028.63;;;0.26;98.09
47815;BME280;33579;50.058;18.130;2023-04-04T06:21:35;100027.53;;;0.33;97.98
47815;BME280;33579;50.058;18.130;2023-04-04T06:22:37;100032.69;;;0.35;96.47
47815;BME280;33579;50.058;18.130;2023-04-04T06:23:40;100037.09;;;0.31;95.89
47815;BME280;33579;50.058;18.130;2023-04-04T06:24:42;100031.03;;;0.32;96.03
47815;BME280;33579;50.058;18.130;2023-04-04T06:25:44;100032.53;;;0.39;95.34
47815;BME280;33579;50.058;18.130;2023-04-04T06:26:47;100027.16;;;0.46;95.33
47815;BME280;33579;50.058;18.130;2023-04-04T06:27:49;100021.69;;;0.55;95.67
47815;BME280;33579;50.058;18.130;2023-04-04T06:28:50;100031.91;;;0.60;96.02
47815;BME280;33579;50.058;18.130;2023-04-04T06:29:57;100026.63;;;0.63;96.37
47815;BME280;33579;50.058;18.130;2023-04-04T06:30:58;100027.53;;;0.60;96.35
47815;BME280;33579;50.058;18.130;2023-04-04T06:32:03;100029.09;;;0.66;96.59
47815;BME280;33579;50.058;18.130;2023-04-04T06:33:23;100026.22;;;0.75;95.96
47815;BME280;33579;50.058;18.130;2023-04-04T06:34:24;100027.50;;;0.89;95.70
47815;BME280;33579;50.058;18.130;2023-04-04T06:35:29;100033.19;;;0.98;94.59
47815;BME280;33579;50.058;18.130;2023-04-04T06:36:33;100026.09;;;1.05;94.57
47815;BME280;33579;50.058;18.130;2023-04-04T06:37:37;100021.63;;;1.09;93.90
47815;BME280;33579;50.058;18.130;2023-04-04T06:38:48;100024.13;;;1.12;92.19
47815;BME280;33579;50.058;18.130;2023-04-04T06:39:53;100027.03;;;1.28;91.32
47815;BME280;33579;50.058;18.130;2023-04-04T06:40:58;100016.16;;;1.42;89.37
47815;BME280;33579;50.058;18.130;2023-04-04T06:41:59;100025.94;;;1.59;87.58
47815;BME280;33579;50.058;18.130;2023-04-04T06:43:03;100021.06;;;1.98;85.65
47815;BME280;33579;50.058;18.130;2023-04-04T06:44:10;100025.63;;;2.15;84.24
47815;BME280;33579;50.058;18.130;2023-04-04T06:45:12;100017.66;;;2.19;82.58
47815;BME280;33579;50.058;18.130;2023-04-04T06:46:13;100026.28;;;2.20;83.14
47815;BME280;33579;50.058;18.130;2023-04-04T06:47:15;100019.63;;;2.35;83.48
47815;BME280;33579;50.058;18.130;2023-04-04T06:48:17;100010.63;;;2.66;82.74
47815;BME280;33579;50.058;18.130;2023-04-04T06:49:18;100022.31;;;2.97;82.12
47815;BME280;33579;50.058;18.130;2023-04-04T06:50:20;100015.69;;;3.11;80.14
47815;BME280;33579;50.058;18.130;2023-04-04T06:51:22;100014.16;;;3.06;78.72
47815;BME280;33579;50.058;18.130;2023-04-04T06:52:24;100020.84;;;3.12;79.07
47815;BME280;33579;50.058;18.130;2023-04-04T06:53:25;100020.44;;;3.21;78.35
47815;BME280;33579;50.058;18.130;2023-04-04T06:54:27;100017.91;;;2.99;77.33
47815;BME280;33579;50.058;18.130;2023-04-04T06:55:28;100028.09;;;2.83;77.09
47815;BME280;33579;50.058;18.130;2023-04-04T06:56:30;100030.78;;;2.81;77.82
47815;BME280;33579;50.058;18.130;2023-04-04T06:57:32;100031.41;;;2.66;76.88
47815;BME280;33579;50.058;18.130;2023-04-04T06:58:33;100027.72;;;2.72;78.21
47815;BME280;33579;50.058;18.130;2023-04-04T06:59:35;100023.09;;;2.78;78.19
47815;BME280;33579;50.058;18.130;2023-04-04T07:00:37;100016.28;;;2.76;76.48
47815;BME280;33579;50.058;18.130;2023-04-04T07:01:39;100031.75;;;3.00;77.02
47815;BME280;33579;50.058;18.130;2023-04-04T07:02:40;100028.38;;;3.18;76.48
47815;BME280;33579;50.058;18.130;2023-04-04T07:03:42;100026.00;;;3.33;75.42
47815;BME280;33579;50.058;18.130;2023-04-04T07:04:44;100023.16;;;3.39;73.82
47815;BME280;33579;50.058;18.130;2023-04-04T07:05:45;100020.34;;;3.44;73.49
47815;BME280;33579;50.058;18.130;2023-04-04T07:06:47;100022.25;;;3.59;74.95
47815;BME280;33579;50.058;18.130;2023-04-04T07:07:51;100025.63;;;3.61;73.01
47815;BME280;33579;50.058;18.130;2023-04-04T07:08:52;100023.91;;;3.62;72.75
47815;BME280;33579;50.058;18.130;2023-04-04T07:09:54;100019.50;;;3.62;71.22
47815;BME280;33579;50.058;18.130;2023-04-04T07:10:57;100026.63;;;3.59;71.69
47815;BME280;33579;50.058;18.130;2023-04-04T07:11:59;100024.25;;;3.54;71.02
47815;BME280;33579;50.058;18.130;2023-04-04T07:13:00;100024.16;;;3.56;72.15
47815;BME280;33579;50.058;18.130;2023-04-04T07:14:02;100019.16;;;3.70;72.02
47815;BME280;33579;50.058;18.130;2023-04-04T07:15:03;100026.84;;;3.73;72.36
47815;BME280;33579;50.058;18.130;2023-04-04T07:16:05;100023.19;;;3.77;71.34
47815;BME280;33579;50.058;18.130;2023-04-04T07:17:07;100025.00;;;3.56;67.26
47815;BME280;33579;50.058;18.130;2023-04-04T07:18:24;100026.66;;;3.38;68.71
47815;BME280;33579;50.058;18.130;2023-04-04T07:19:26;100025.22;;;3.51;71.32
47815;BME280;33579;50.058;18.130;2023-04-04T07:20:27;100034.44;;;3.59;69.43
47815;BME280;33579;50.058;18.130;2023-04-04T07:21:29;100030.13;;;3.58;68.80
47815;BME280;33579;50.058;18.130;2023-04-04T07:22:30;100032.50;;;3.43;66.29
47815;BME280;33579;50.058;18.130;2023-04-04T07:23:32;100035.13;;;3.22;66.30
47815;BME280;33579;50.058;18.130;2023-04-04T07:24:33;100026.88;;;3.13;67.02
47815;BME280;33579;50.058;18.130;2023-04-04T07:25:36;100031.63;;;3.03;67.83
47815;BME280;33579;50.058;18.130;2023-04-04T07:26:38;100026.41;;;3.03;67.55
47815;BME280;33579;50.058;18.130;2023-04-04T07:27:39;100020.31;;;3.04;67.36
47815;BME280;33579;50.058;18.130;2023-04-04T07:28:41;100019.25;;;3.08;68.49
47815;BME280;33579;50.058;18.130;2023-04-04T07:29:42;100020.84;;;3.12;67.18
47815;BME280;33579;50.058;18.130;2023-04-04T07:30:44;100024.16;;;3.16;66.11
47815;BME280;33579;50.058;18.130;2023-04-04T07:31:46;100030.72;;;3.04;63.89
47815;BME280;33579;50.058;18.130;2023-04-04T07:32:55;100035.91;;;3.04;65.27
47815;BME280;33579;50.058;18.130;2023-04-04T07:33:57;100028.16;;;3.02;63.30
47815;BME280;33579;50.058;18.130;2023-04-04T07:34:58;100017.72;;;3.04;63.86
47815;BME280;33579;50.058;18.130;2023-04-04T07:36:00;100026.41;;;3.03;63.71
47815;BME280;33579;50.058;18.130;2023-04-04T07:37:02;100021.09;;;3.06;64.18
47815;BME280;33579;50.058;18.130;2023-04-04T07:38:03;100025.13;;;3.13;64.09
47815;BME280;33579;50.058;18.130;2023-04-04T07:39:05;100022.81;;;3.26;65.20
47815;BME280;33579;50.058;18.130;2023-04-04T07:40:07;100025.03;;;3.35;66.43
47815;BME280;33579;50.058;18.130;2023-04-04T07:41:08;100030.34;;;3.53;65.35
47815;BME280;33579;50.058;18.130;2023-04-04T07:42:10;100028.72;;;3.50;62.33
47815;BME280;33579;50.058;18.130;2023-04-04T07:43:12;100024.28;;;3.53;62.41
47815;BME280;33579;50.058;18.130;2023-04-04T07:44:13;100024.44;;;3.49;62.35
47815;BME280;33579;50.058;18.130;2023-04-04T07:45:15;100021.75;;;3.51;61.30
47815;BME280;33579;50.058;18.130;2023-04-04T07:46:17;100024.69;;;3.43;62.21
47815;BME280;33579;50.058;18.130;2023-04-04T07:47:18;100017.66;;;3.45;63.23
47815;BME280;33579;50.058;18.130;2023-04-04T07:48:20;100015.44;;;3.57;64.44
47815;BME280;33579;50.058;18.130;2023-04-04T07:49:23;100022.41;;;3.75;65.75
47815;BME280;33579;50.058;18.130;2023-04-04T07:50:25;100021.66;;;3.92;66.07
47815;BME280;33579;50.058;18.130;2023-04-04T07:51:26;100021.88;;;3.88;63.66
47815;BME280;33579;50.058;18.130;2023-04-04T07:52:28;100028.41;;;3.97;62.63
47815;BME280;33579;50.058;18.130;2023-04-04T07:53:30;100028.41;;;3.97;60.92
47815;BME280;33579;50.058;18.130;2023-04-04T07:54:32;100028.53;;;3.93;61.24
47815;BME280;33579;50.058;18.130;2023-04-04T07:55:33;100026.22;;;3.87;60.60
47815;BME280;33579;50.058;18.130;2023-04-04T07:56:35;100017.94;;;3.79;60.75
47815;BME280;33579;50.058;18.130;2023-04-04T07:57:37;100025.94;;;3.74;61.85
47815;BME280;33579;50.058;18.130;2023-04-04T07:58:39;100015.44;;;3.76;63.65
47815;BME280;33579;50.058;18.130;2023-04-04T07:59:41;100025.44;;;3.85;62.80
47815;BME280;33579;50.058;18.130;2023-04-04T08:00:42;100029.31;;;3.96;62.19
47815;BME280;33579;50.058;18.130;2023-04-04T08:01:44;100031.00;;;3.97;60.43
47815;BME280;33579;50.058;18.130;2023-04-04T08:02:54;100024.59;;;4.04;62.67
47815;BME280;33579;50.058;18.130;2023-04-04T08:03:56;100017.81;;;4.19;63.67
47815;BME280;33579;50.058;18.130;2023-04-04T08:04:57;100020.50;;;4.17;61.04
47815;BME280;33579;50.058;18.130;2023-04-04T08:05:59;100038.25;;;3.90;60.04
47815;BME280;33579;50.058;18.130;2023-04-04T08:07:01;100036.78;;;3.84;60.10
47815;BME280;33579;50.058;18.130;2023-04-04T08:08:03;100026.78;;;3.94;64.26
47815;BME280;33579;50.058;18.130;2023-04-04T08:09:04;100029.50;;;4.10;63.55
47815;BME280;33579;50.058;18.130;2023-04-04T08:10:06;100028.72;;;4.27;65.07
47815;BME280;33579;50.058;18.130;2023-04-04T08:11:08;100026.19;;;4.26;63.29
47815;BME280;33579;50.058;18.130;2023-04-04T08:12:10;100023.38;;;4.11;64.03
47815;BME280;33579;50.058;18.130;2023-04-04T08:13:11;100026.16;;;3.89;62.90
47815;BME280;33579;50.058;18.130;2023-04-04T08:14:13;100026.19;;;3.68;64.37
47815;BME280;33579;50.058;18.130;2023-04-04T08:15:15;100025.69;;;3.41;66.50
47815;BME280;33579;50.058;18.130;2023-04-04T08:16:16;100022.91;;;3.25;66.51
47815;BME280;33579;50.058;18.130;2023-04-04T08:17:18;100013.88;;;3.13;66.24
47815;BME280;33579;50.058;18.130;2023-04-04T08:18:19;100020.69;;;3.15;66.06
47815;BME280;33579;50.058;18.130;2023-04-04T08:19:21;100025.56;;;3.02;65.79
47815;BME280;33579;50.058;18.130;2023-04-04T08:20:23;100013.38;;;3.04;66.94
47815;BME280;33579;50.058;18.130;2023-04-04T08:21:24;100027.66;;;2.94;67.06
47815;BME280;33579;50.058;18.130;2023-04-04T08:22:26;100016.59;;;2.89;68.70
47815;BME280;33579;50.058;18.130;2023-04-04T08:23:27;100021.09;;;2.85;67.64
47815;BME280;33579;50.058;18.130;2023-04-04T08:24:29;100031.63;;;3.03;69.88
47815;BME280;33579;50.058;18.130;2023-04-04T08:25:31;100028.50;;;3.15;68.72
47815;BME280;33579;50.058;18.130;2023-04-04T08:26:32;100023.31;;;3.15;67.72
47815;BME280;33579;50.058;18.130;2023-04-04T08:27:34;100025.03;;;3.15;66.66
47815;BME280;33579;50.058;18.130;2023-04-04T08:28:35;100028.50;;;3.15;66.11
47815;BME280;33579;50.058;18.130;2023-04-04T08:29:37;100022.00;;;3.05;64.72
47815;BME280;33579;50.058;18.130;2023-04-04T08:30:38;100029.78;;;3.05;68.36
47815;BME280;33579;50.058;18.130;2023-04-04T08:31:40;100021.22;;;3.23;69.89
47815;BME280;33579;50.058;18.130;2023-04-04T08:32:42;100018.72;;;3.41;67.34
47815;BME280;33579;50.058;18.130;2023-04-04T08:33:43;100014.59;;;3.56;67.20
47815;BME280;33579;50.058;18.130;2023-04-04T08:34:48;100018.00;;;3.77;68.00
47815;BME280;33579;50.058;18.130;2023-04-04T08:35:49;100010.31;;;3.74;68.23
47815;BME280;33579;50.058;18.130;2023-04-04T08:36:51;100022.94;;;3.84;65.80
47815;BME280;33579;50.058;18.130;2023-04-04T08:37:53;100009.25;;;3.78;65.95
47815;BME280;33579;50.058;18.130;2023-04-04T08:38:54;100009.56;;;3.91;68.53
47815;BME280;33579;50.058;18.130;2023-04-04T08:39:56;100012.50;;;3.84;65.74
47815;BME280;33579;50.058;18.130;2023-04-04T08:40:57;100006.94;;;3.72;67.71
47815;BME280;33579;50.058;18.130;2023-04-04T08:42:06;100013.91;;;3.91;69.54